createdAt,value
2022-12-08T00:01:35.505Z,100186.34
2022-12-08T00:04:05.074Z,100176.03
2022-12-08T00:06:53.837Z,100171.63
2022-12-08T00:09:24.058Z,100177.75
2022-12-08T00:11:54.678Z,100168.97
2022-12-08T00:14:25.919Z,100164.56
2022-12-08T00:16:54.340Z,100167.25
2022-12-08T00:19:22.767Z,100163.72
2022-12-08T00:21:52.665Z,100158.44
2022-12-08T00:24:21.912Z,100162.09
2022-12-08T00:26:50.486Z,100160.31
2022-12-08T00:29:18.808Z,100153.34
2022-12-08T00:31:46.747Z,100153.34
2022-12-08T00:34:15.565Z,100149.75
2022-12-08T00:36:43.930Z,100159.38
2022-12-08T00:39:15.317Z,100152.31
2022-12-08T00:42:00.669Z,100153.97
2022-12-08T00:44:28.938Z,100138.44
2022-12-08T00:46:56.964Z,100141.91
2022-12-08T00:49:25.399Z,100129.69
2022-12-08T00:51:53.461Z,100146.22
2022-12-08T00:54:23.962Z,100137.41
2022-12-08T00:56:52.412Z,100123.63
2022-12-08T00:59:20.262Z,100136.56
2022-12-08T01:01:49.103Z,100129.69
2022-12-08T01:04:18.733Z,100132.31
2022-12-08T01:06:47.441Z,100114.13
2022-12-08T01:09:16.907Z,100132.31
2022-12-08T01:11:46.783Z,100128.88
2022-12-08T01:14:15.431Z,100126.31
2022-12-08T01:16:44.224Z,100135.09
2022-12-08T01:19:13.324Z,100134.13
2022-12-08T01:21:41.975Z,100128.97
2022-12-08T01:24:12.811Z,100132.50
2022-12-08T01:26:40.920Z,100122.81
2022-12-08T01:29:10.858Z,100122.94
2022-12-08T01:31:39.158Z,100117.00
2022-12-08T01:34:08.039Z,100114.50
2022-12-08T01:36:38.260Z,100122.63
2022-12-08T01:39:08.887Z,100118.28
2022-12-08T01:41:39.321Z,100121.00
2022-12-08T01:44:40.576Z,100117.50
2022-12-08T01:47:10.474Z,100116.66
2022-12-08T01:49:38.739Z,100114.88
2022-12-08T01:52:12.285Z,100112.31
2022-12-08T01:54:44.276Z,100108.81
2022-12-08T01:57:15.661Z,100112.31
2022-12-08T01:59:47.955Z,100101.03
2022-12-08T02:02:17.434Z,100104.50
2022-12-08T02:04:45.441Z,100111.56
2022-12-08T02:07:15.658Z,100102.91
2022-12-08T02:09:43.947Z,100101.19
2022-12-08T02:12:12.856Z,100097.72
2022-12-08T02:14:41.028Z,100085.53
2022-12-08T02:17:26.341Z,100089.06
2022-12-08T02:20:21.626Z,100086.47
2022-12-08T02:22:55.744Z,100084.56
2022-12-08T02:25:33.377Z,100079.28
2022-12-08T02:28:09.481Z,100074.03
2022-12-08T02:30:48.571Z,100074.00
2022-12-08T02:34:01.746Z,100074.00
2022-12-08T02:36:40.954Z,100068.78
2022-12-08T02:39:19.397Z,100071.38
2022-12-08T02:41:54.844Z,100052.41
2022-12-08T02:44:29.021Z,100061.88
2022-12-08T02:47:00.574Z,100067.13
2022-12-08T02:49:34.460Z,100068.84
2022-12-08T02:52:07.483Z,100075.78
2022-12-08T02:54:37.201Z,100065.19
2022-12-08T02:57:22.699Z,100066.13
2022-12-08T03:00:06.061Z,100072.94
2022-12-08T03:02:45.502Z,100073.81
2022-12-08T03:05:34.689Z,100065.00
2022-12-08T03:08:09.914Z,100073.66
2022-12-08T03:10:44.001Z,100056.13
2022-12-08T03:13:16.648Z,100054.41
2022-12-08T03:15:47.922Z,100052.63
2022-12-08T03:18:17.760Z,100046.50
2022-12-08T03:20:48.997Z,100038.72
2022-12-08T03:23:19.768Z,100040.28
2022-12-08T03:25:54.604Z,100030.63
2022-12-08T03:28:22.582Z,100033.19
2022-12-08T03:30:56.701Z,100034.06
2022-12-08T03:33:28.854Z,100024.31
2022-12-08T03:36:00.620Z,100029.75
2022-12-08T03:38:38.872Z,100017.41
2022-12-08T03:41:22.142Z,100016.59
2022-12-08T03:43:51.735Z,100003.63
2022-12-08T03:48:48.793Z,100011.47
2022-12-08T03:51:18.582Z,100002.91
2022-12-08T03:53:47.365Z,100015.88
2022-12-08T03:56:20.560Z,100010.63
2022-12-08T03:58:48.523Z,100005.34
2022-12-08T04:01:16.394Z,99999.25
2022-12-08T04:03:44.367Z,100000.22
2022-12-08T04:06:12.396Z,100003.50
2022-12-08T04:08:42.030Z,99979.94
2022-12-08T04:11:10.687Z,99987.75
2022-12-08T04:13:40.324Z,99986.84
2022-12-08T04:16:09.605Z,99990.38
2022-12-08T04:18:37.589Z,99985.06
2022-12-08T04:21:05.969Z,99983.31
2022-12-08T04:23:33.852Z,99976.34
2022-12-08T04:26:03.136Z,99978.06
2022-12-08T04:28:31.103Z,99979.94
2022-12-08T04:30:59.176Z,99979.13
2022-12-08T04:33:27.382Z,99977.28
2022-12-08T04:35:55.301Z,99977.31
2022-12-08T04:38:23.349Z,99969.44
2022-12-08T04:40:51.235Z,99977.16
2022-12-08T04:43:20.495Z,99973.66
2022-12-08T04:45:48.508Z,99969.28
2022-12-08T04:48:16.404Z,99970.03
2022-12-08T04:50:46.185Z,99969.09
2022-12-08T04:53:14.780Z,99966.41
2022-12-08T04:55:44.775Z,99959.41
2022-12-08T04:58:14.713Z,99955.34
2022-12-08T05:00:44.854Z,99957.81
2022-12-08T05:03:13.364Z,99956.22
2022-12-08T05:05:42.181Z,99957.00
2022-12-08T05:08:11.339Z,99952.84
2022-12-08T05:10:39.572Z,99946.59
2022-12-08T05:13:07.547Z,99949.41
2022-12-08T05:15:35.587Z,99946.72
2022-12-08T05:18:06.152Z,99944.97
2022-12-08T05:20:34.068Z,99938.78
2022-12-08T05:23:01.978Z,99944.84
2022-12-08T05:25:29.924Z,99943.16
2022-12-08T05:28:17.496Z,99943.94
2022-12-08T05:30:45.809Z,99948.44
2022-12-08T05:33:15.299Z,99930.13
2022-12-08T05:35:43.278Z,99941.44
2022-12-08T05:38:11.409Z,99921.34
2022-12-08T05:40:39.974Z,99933.59
2022-12-08T05:43:08.192Z,99923.06
2022-12-08T05:45:36.147Z,99929.34
2022-12-08T05:48:04.394Z,99927.41
2022-12-08T05:50:33.728Z,99923.00
2022-12-08T05:53:05.479Z,99932.56
2022-12-08T05:55:33.499Z,99931.78
2022-12-08T05:58:07.487Z,99929.88
2022-12-08T06:00:36.060Z,99928.13
2022-12-08T06:03:04.185Z,99921.03
2022-12-08T06:05:35.287Z,99920.97
2022-12-08T06:08:03.658Z,99923.50
2022-12-08T06:10:31.593Z,99922.72
2022-12-08T06:12:59.574Z,99931.53
2022-12-08T06:15:27.619Z,99924.56
2022-12-08T06:17:55.504Z,99921.00
2022-12-08T06:20:35.488Z,99918.34
2022-12-08T06:23:03.493Z,99918.34
2022-12-08T06:25:31.666Z,99920.19
2022-12-08T06:27:59.521Z,99912.25
2022-12-08T06:30:28.544Z,99916.78
2022-12-08T06:32:56.626Z,99914.00
2022-12-08T06:35:24.505Z,99909.75
2022-12-08T06:37:53.717Z,99923.78
2022-12-08T06:40:21.622Z,99921.19
2022-12-08T06:42:49.540Z,99925.53
2022-12-08T06:45:19.244Z,99926.53
2022-12-08T06:47:47.140Z,99922.31
2022-12-08T06:50:15.494Z,99926.59
2022-12-08T06:52:54.320Z,99938.09
2022-12-08T06:58:18.433Z,99926.69
2022-12-08T07:00:46.625Z,99938.06
2022-12-08T07:03:14.813Z,99927.81
2022-12-08T07:05:42.759Z,99935.00
2022-12-08T07:08:10.991Z,99941.31
2022-12-08T07:10:40.345Z,99940.59
2022-12-08T07:13:08.225Z,99937.41
2022-12-08T07:15:36.590Z,99944.66
2022-12-08T07:18:04.624Z,99951.72
2022-12-08T07:20:32.703Z,99946.38
2022-12-08T07:23:00.845Z,99951.78
2022-12-08T07:25:29.095Z,99951.81
2022-12-08T07:27:58.537Z,99943.06
2022-12-08T07:30:26.586Z,99948.34
2022-12-08T07:32:54.646Z,99948.59
2022-12-08T07:35:23.163Z,99953.81
2022-12-08T07:37:51.150Z,99947.75
2022-12-08T07:40:19.265Z,99954.69
2022-12-08T07:42:47.206Z,99949.34
2022-12-08T07:45:16.734Z,99943.97
2022-12-08T07:47:44.633Z,99952.00
2022-12-08T07:50:12.586Z,99948.50
2022-12-08T07:52:40.655Z,99948.44
2022-12-08T07:55:09.500Z,99948.34
2022-12-08T07:57:37.472Z,99948.16
2022-12-08T08:00:07.107Z,99940.41
2022-12-08T08:02:41.088Z,99951.78
2022-12-08T08:05:10.340Z,99941.84
2022-12-08T08:07:38.645Z,99946.28
2022-12-08T08:10:08.084Z,99949.75
2022-12-08T08:12:36.838Z,99952.38
2022-12-08T08:15:07.340Z,99942.78
2022-12-08T08:17:36.491Z,99956.66
2022-12-08T08:20:07.731Z,99957.47
2022-12-08T08:22:36.711Z,99958.47
2022-12-08T08:25:05.623Z,99958.19
2022-12-08T08:27:34.258Z,99957.22
2022-12-08T08:30:03.048Z,99959.13
2022-12-08T08:32:34.225Z,99955.63
2022-12-08T08:35:02.284Z,99946.97
2022-12-08T08:37:32.355Z,99966.94
2022-12-08T08:40:00.356Z,99968.59
2022-12-08T08:42:28.586Z,99964.09
2022-12-08T08:44:56.614Z,99968.69
2022-12-08T08:47:24.596Z,99965.09
2022-12-08T08:49:52.706Z,99966.69
2022-12-08T08:52:20.654Z,99971.84
2022-12-08T08:54:49.907Z,99973.88
2022-12-08T08:57:23.651Z,99966.50
2022-12-08T08:59:53.558Z,99977.81
2022-12-08T09:02:22.183Z,99971.75
2022-12-08T09:04:50.448Z,99937.09
2022-12-08T09:07:18.446Z,99968.13
2022-12-08T09:09:46.448Z,99971.59
2022-12-08T09:12:16.362Z,99967.97
2022-12-08T09:14:44.356Z,99973.06
2022-12-08T09:17:12.478Z,99982.88
2022-12-08T09:19:40.461Z,99981.06
2022-12-08T09:22:08.398Z,99983.59
2022-12-08T09:24:36.341Z,99985.44
2022-12-08T09:27:04.452Z,99989.72
2022-12-08T09:29:36.164Z,99978.13
2022-12-08T09:32:04.809Z,99978.75
2022-12-08T09:34:32.810Z,99980.91
2022-12-08T09:37:00.829Z,99958.28
2022-12-08T09:39:31.680Z,99982.44
2022-12-08T09:42:02.013Z,99982.38
2022-12-08T09:44:55.167Z,99974.44
2022-12-08T09:47:25.293Z,99970.81
2022-12-08T09:50:00.738Z,99968.47
2022-12-08T09:52:33.559Z,99961.50
2022-12-08T09:55:05.549Z,99964.13
2022-12-08T09:57:33.632Z,99957.84
2022-12-08T10:00:07.389Z,99955.25
2022-12-08T10:02:35.703Z,99956.69
2022-12-08T10:05:03.666Z,99956.69
2022-12-08T10:07:40.006Z,99962.84
2022-12-08T10:10:17.670Z,99961.78
2022-12-08T10:12:52.850Z,99952.84
2022-12-08T10:15:47.975Z,99958.41
2022-12-08T10:18:18.839Z,99954.72
2022-12-08T10:20:48.984Z,99963.84
2022-12-08T10:23:26.118Z,99962.09
2022-12-08T10:25:59.811Z,99961.22
2022-12-08T10:28:27.768Z,99958.66
2022-12-08T10:30:57.221Z,99964.91
2022-12-08T10:33:25.409Z,99953.44
2022-12-08T10:35:56.317Z,99960.47
2022-12-08T10:38:28.143Z,99947.34
2022-12-08T10:41:04.378Z,99948.56
2022-12-08T10:43:34.262Z,99939.78
2022-12-08T10:46:15.783Z,99950.34
2022-12-08T10:48:53.672Z,99947.41
2022-12-08T10:51:29.019Z,99955.28
2022-12-08T10:53:57.819Z,99928.97
2022-12-08T10:56:28.501Z,99944.06
2022-12-08T10:59:15.708Z,99938.72
2022-12-08T11:01:48.542Z,99938.22
2022-12-08T11:04:19.750Z,99925.44
2022-12-08T11:06:50.050Z,99940.28
2022-12-08T11:09:32.628Z,99936.91
2022-12-08T11:12:01.634Z,99932.28
2022-12-08T11:14:31.832Z,99933.84
2022-12-08T11:17:08.146Z,99934.03
2022-12-08T11:19:39.470Z,99944.31
2022-12-08T11:22:22.338Z,99939.69
2022-12-08T11:24:59.406Z,99944.88
2022-12-08T11:27:27.751Z,99951.94
2022-12-08T11:29:55.936Z,99933.00
2022-12-08T11:32:25.486Z,99940.16
2022-12-08T11:35:00.047Z,99929.50
2022-12-08T11:37:35.125Z,99949.81
2022-12-08T11:40:08.661Z,99932.63
2022-12-08T11:42:45.690Z,99939.19
2022-12-08T11:45:20.825Z,99941.81
2022-12-08T11:47:58.618Z,99947.59
2022-12-08T11:50:30.703Z,99934.25
2022-12-08T11:53:00.904Z,99935.16
2022-12-08T11:55:37.179Z,99938.72
2022-12-08T11:58:16.721Z,99940.34
2022-12-08T12:00:44.775Z,99940.03
2022-12-08T12:03:25.230Z,99937.97
2022-12-08T12:06:37.583Z,99934.69
2022-12-08T12:09:10.508Z,99933.03
2022-12-08T12:12:07.612Z,99939.78
2022-12-08T12:14:57.855Z,99941.25
2022-12-08T12:17:40.633Z,99936.09
2022-12-08T12:20:20.424Z,99937.09
2022-12-08T12:22:53.995Z,99932.13
2022-12-08T12:25:24.999Z,99938.22
2022-12-08T12:27:57.804Z,99935.50
2022-12-08T12:30:27.622Z,99932.06
2022-12-08T12:32:58.221Z,99938.22
2022-12-08T12:35:34.520Z,99933.19
2022-12-08T12:38:26.533Z,99938.41
2022-12-08T12:40:59.341Z,99939.31
2022-12-08T12:43:31.643Z,99936.63
2022-12-08T12:46:39.957Z,99940.28
2022-12-08T12:49:46.084Z,99936.91
2022-12-08T12:52:49.361Z,99933.38
2022-12-08T12:55:46.446Z,99934.38
2022-12-08T12:58:38.773Z,99934.44
2022-12-08T13:01:38.209Z,99933.47
2022-12-08T13:04:09.343Z,99933.50
2022-12-08T13:06:42.179Z,99918.78
2022-12-08T13:09:23.754Z,99939.66
2022-12-08T13:11:55.698Z,99939.06
2022-12-08T13:14:38.502Z,99939.81
2022-12-08T13:17:13.285Z,99940.53
2022-12-08T13:19:45.367Z,99934.44
2022-12-08T13:22:50.931Z,99942.31
2022-12-08T13:25:58.684Z,99932.47
2022-12-08T13:28:29.919Z,99939.59
2022-12-08T13:30:59.620Z,99930.00
2022-12-08T13:33:31.355Z,99926.31
2022-12-08T13:36:11.647Z,99932.44
2022-12-08T13:38:41.065Z,99944.84
2022-12-08T13:41:18.603Z,99936.84
2022-12-08T13:44:31.110Z,99936.91
2022-12-08T13:56:51.500Z,99947.50
2022-12-08T13:58:21.000Z,99953.66
2022-12-08T14:01:02.796Z,99947.38
2022-12-08T14:03:31.368Z,99954.00
2022-12-08T14:06:15.593Z,99953.16
2022-12-08T14:09:10.438Z,99942.09
2022-12-08T14:11:38.366Z,99951.00
2022-12-08T14:14:09.231Z,99958.72
2022-12-08T14:16:41.456Z,99958.78
2022-12-08T14:19:18.491Z,99961.66
2022-12-08T14:21:55.541Z,99957.31
2022-12-08T14:24:24.391Z,99959.22
2022-12-08T14:26:55.264Z,99967.91
2022-12-08T14:29:37.806Z,99960.09
2022-12-08T14:32:19.821Z,99963.47
2022-12-08T14:34:53.734Z,99955.44
2022-12-08T14:37:22.941Z,99958.88
2022-12-08T14:39:52.183Z,99957.25
2022-12-08T14:42:24.498Z,99960.09
2022-12-08T14:45:04.968Z,99962.78
2022-12-08T14:47:35.716Z,99958.53
2022-12-08T14:50:26.392Z,99963.88
2022-12-08T14:52:54.633Z,99971.84
2022-12-08T14:55:22.683Z,99970.88
2022-12-08T14:57:50.728Z,99978.78
2022-12-08T15:00:23.179Z,99973.66
2022-12-08T15:02:56.985Z,99980.50
2022-12-08T15:05:33.132Z,99979.63
2022-12-08T15:08:04.637Z,99977.03
2022-12-08T15:10:37.898Z,99978.78
2022-12-08T15:13:21.040Z,99974.38
2022-12-08T15:15:51.751Z,99974.41
2022-12-08T15:18:29.663Z,99972.72
2022-12-08T15:21:03.302Z,99980.69
2022-12-08T15:24:38.414Z,99982.41
2022-12-08T15:27:06.353Z,99980.78
2022-12-08T15:29:34.305Z,99990.47
2022-12-08T15:32:02.754Z,99989.72
2022-12-08T15:34:32.506Z,99981.13
2022-12-08T15:37:00.492Z,99988.25
2022-12-08T15:39:33.975Z,99991.75
2022-12-08T15:42:03.051Z,99992.69
2022-12-08T15:44:32.733Z,99991.09
2022-12-08T15:47:01.437Z,99993.81
2022-12-08T15:49:29.616Z,99995.56
2022-12-08T15:52:10.631Z,99996.47
2022-12-08T15:54:40.225Z,99991.22
2022-12-08T15:57:25.067Z,100000.78
2022-12-08T16:00:05.424Z,100000.72
2022-12-08T16:02:49.487Z,99992.91
2022-12-08T16:08:44.573Z,100007.91
2022-12-08T16:12:03.829Z,100002.00
2022-12-08T16:14:47.098Z,100010.47
2022-12-08T16:16:51.534Z,100012.31
2022-12-08T16:19:19.530Z,100011.44
2022-12-08T16:24:37.375Z,100012.59
2022-12-08T16:29:53.434Z,100011.22
2022-12-08T16:32:21.684Z,100024.38
2022-12-08T16:34:51.039Z,100021.16
2022-12-08T16:37:21.007Z,100012.81
2022-12-08T16:39:51.915Z,100014.81
2022-12-08T16:42:41.716Z,100026.91
2022-12-08T16:45:12.638Z,100029.59
2022-12-08T16:47:42.497Z,100032.28
2022-12-08T16:50:13.043Z,100018.31
2022-12-08T16:52:42.749Z,100025.06
2022-12-08T16:55:14.356Z,100030.44
2022-12-08T19:07:59.205Z,100058.50
2022-12-08T19:10:27.878Z,100064.25
2022-12-08T19:12:56.081Z,100064.91
2022-12-08T19:15:28.894Z,100020.06
2022-12-08T19:18:01.178Z,100051.22
2022-12-08T19:20:29.963Z,100064.31
2022-12-08T19:22:59.390Z,100050.53
2022-12-08T19:25:33.032Z,100075.75
2022-12-08T19:28:01.432Z,100080.88
2022-12-08T19:30:30.184Z,100038.47
2022-12-08T19:32:58.347Z,100086.97
2022-12-08T19:35:26.658Z,100067.16
2022-12-08T19:37:55.061Z,100079.28
2022-12-08T19:40:38.491Z,100071.53
2022-12-08T19:43:23.867Z,100073.41
2022-12-08T19:45:51.908Z,100070.00
2022-12-08T19:48:19.384Z,100070.03
2022-12-08T19:50:46.892Z,100077.09
2022-12-08T19:53:18.770Z,100076.38
2022-12-08T19:55:48.819Z,100081.56
2022-12-08T19:58:17.055Z,100075.53
2022-12-08T20:00:45.326Z,100083.34
2022-12-08T20:03:16.231Z,100069.53
2022-12-08T20:05:45.487Z,100080.00
2022-12-08T20:08:15.698Z,100072.22
2022-12-08T20:10:55.960Z,100079.25
2022-12-08T20:13:37.968Z,100082.72
2022-12-08T20:16:05.464Z,100082.75
2022-12-08T20:18:34.671Z,100094.94
2022-12-08T20:21:02.848Z,100089.75
2022-12-08T20:23:31.169Z,100086.22
2022-12-08T20:26:00.684Z,100096.66
2022-12-08T20:28:28.679Z,100087.09
2022-12-08T20:30:56.816Z,100099.28
2022-12-08T20:33:25.158Z,100088.78
2022-12-08T20:36:00.198Z,100092.31
2022-12-08T20:38:28.413Z,100078.06
2022-12-08T20:40:57.842Z,100072.03
2022-12-08T20:43:28.043Z,100031.41
2022-12-08T20:45:56.101Z,100067.84
2022-12-08T20:48:25.099Z,100079.19
2022-12-08T20:50:53.439Z,100087.84
2022-12-08T20:53:21.586Z,100094.81
2022-12-08T20:55:49.730Z,100087.09
2022-12-08T20:58:17.846Z,100099.28
2022-12-08T21:00:50.349Z,100101.06
2022-12-08T21:03:18.913Z,100109.78
2022-12-08T21:05:50.385Z,100106.31
2022-12-08T21:08:19.555Z,100111.53
2022-12-08T21:10:54.532Z,100106.25
2022-12-08T21:13:22.720Z,100108.00
2022-12-08T21:15:52.226Z,100105.38
2022-12-08T21:18:20.899Z,100108.88
2022-12-08T21:20:49.320Z,100111.53
2022-12-08T21:23:18.279Z,100111.47
2022-12-08T21:25:48.217Z,100110.59
2022-12-08T21:28:16.643Z,100118.44
2022-12-08T21:30:45.086Z,100119.31
2022-12-08T21:33:14.997Z,100109.78
2022-12-08T21:35:43.222Z,100113.25
2022-12-08T21:38:11.761Z,100113.25
2022-12-08T21:40:39.979Z,100104.56
2022-12-08T21:43:08.401Z,100113.25
2022-12-08T21:45:36.550Z,100114.13
2022-12-08T21:48:10.735Z,100092.47
2022-12-08T21:50:41.419Z,100114.19
2022-12-08T21:53:09.791Z,100103.81
2022-12-08T21:55:38.035Z,100112.50
2022-12-08T21:58:06.309Z,100116.03
2022-12-08T22:00:34.957Z,100116.94
2022-12-08T22:03:03.555Z,100123.00
2022-12-08T22:05:32.228Z,100125.59
2022-12-08T22:08:02.236Z,100116.06
2022-12-08T22:10:30.605Z,100115.25
2022-12-08T22:12:59.232Z,100115.25
2022-12-08T22:15:29.961Z,100106.69
2022-12-08T22:18:02.643Z,100124.06
2022-12-08T22:20:33.979Z,100111.84
2022-12-08T22:23:04.955Z,100108.34
2022-12-08T22:25:33.022Z,100114.38
2022-12-08T22:28:01.203Z,100110.06
2022-12-08T22:30:32.875Z,100111.84
2022-12-08T22:33:06.273Z,100099.75
2022-12-08T22:35:34.547Z,100107.50
2022-12-08T22:38:04.040Z,100103.19
2022-12-08T22:40:32.222Z,100100.59
2022-12-08T22:43:00.768Z,100104.03
2022-12-08T22:45:31.239Z,100110.06
2022-12-08T22:47:59.415Z,100082.28
2022-12-08T22:50:27.508Z,100104.81
2022-12-08T22:52:55.753Z,100105.69
2022-12-08T22:55:25.467Z,100072.81
2022-12-08T22:57:54.239Z,100108.38
2022-12-08T23:00:22.401Z,100115.38
2022-12-08T23:02:50.810Z,100108.41
2022-12-08T23:05:19.222Z,100092.84
2022-12-08T23:07:47.988Z,100116.25
2022-12-08T23:10:16.268Z,100118.81
2022-12-08T23:12:45.867Z,100120.56
2022-12-08T23:15:14.352Z,100107.53
2022-12-08T23:17:42.883Z,100113.63
2022-12-08T23:20:11.903Z,100113.66
2022-12-08T23:22:40.262Z,100112.72
2022-12-08T23:25:09.520Z,100113.56
2022-12-08T23:27:38.668Z,100089.28
2022-12-08T23:30:09.987Z,100111.84
2022-12-08T23:32:38.712Z,100118.00
2022-12-08T23:35:08.508Z,100114.59
2022-12-08T23:37:37.430Z,100116.31
2022-12-08T23:40:07.847Z,100095.50
2022-12-08T23:42:37.685Z,100113.72
2022-12-08T23:45:08.429Z,100115.41
2022-12-08T23:47:38.167Z,100116.28
2022-12-08T23:50:07.969Z,100112.81
2022-12-08T23:52:39.317Z,100108.47
2022-12-08T23:55:09.451Z,100107.59
2022-12-08T23:57:38.625Z,100097.22
